Airfield :
LOGIN :

Register | Disclaimer

   EN    FR    IT 

 










Legend :    VFR   Marginal VFR   IFR   Intensive IFR   Very Intensive IFR
Visi :
Ceiling :
>= 8 km
>= 3000ft
5 to 8 km
1000 to 3000 ft
1500m to 5 km
500 to 1000 ft
800 to 1500m
200 to 500 ft
< 800m
< 200 ft
Symbols :   Thunderstorms  Fog  Heavy snow  Heavy precipitations  Wind > 20 kt
SIGMETs :     Misc.  Thunderstorms  Icing  Turbulence  Mountain Waves  Volcanic Ashes






- Airport Elevation : 465 ft
- IATA code : LEJ


EDDP - Leipzig Halle

CURRENT METAR :
  • 011750Z AUTO 32014KT CAVOK 17/09 Q1016 NOSIG

EXPIRED METARs :
  • 011720Z AUTO 32014KT CAVOK 18/10 Q1016 NOSIG
  • 011650Z AUTO 32014KT CAVOK 19/10 Q1016 NOSIG
  • 011620Z AUTO 33015KT 290V350 CAVOK 19/09 Q1016 NOSIG
  • 011550Z AUTO 31014KT CAVOK 20/10 Q1016 NOSIG
  • 011520Z AUTO 32015KT CAVOK 20/09 Q1016 NOSIG

TAF TAF EDDP
Valid from the 01 at 18:00 until the 02 at 18:00 UTC


011700Z 0118/0218 33006KT CAVOK
PROB30
TEMPO 0203/0207 BKN010
BECMG 0210/0212 03007KT



MET'MAP, your aeronautical weather chart ! - Copyright ORBIFLY December 2007 - Disclaimer

ORBIFLY MET'MAP TEAM :

Programming & Development : Alexandra Zaïnal
Original concept : Baudouin d'Aumeries
Technical & hardware support : Manuel Goepfert
Assistance : Marc-Olivier Méhu




SOURCES & CREDITS :

   NOAA